59FL weather

Florida Power & Light-Juno Beach Heliport
Juno Beach, Florida, United States

Public forecast

Using degrees Fahrenheit for public forecast. Weather courtesy of forecast.io.

Closest aviation weather report (METAR) to Florida Power & Light-Juno Beach Heliport

Closest report is Palm Beach International Airport, 10.8 nm (20.0 km) S. Retrieved 2019/10/17 10:53 UTC (35 minutes ago):

KPBI 171053Z 27005KT 10SM FEW025 FEW070 SCT250 24/23 A2991 RMK AO2 SLP127 T02440233

Closest aviation forecast (TAF) to Florida Power & Light-Juno Beach Heliport

Closest forecast is Palm Beach International Airport, 10.8 nm (20.0 km) S. Retrieved 2019/10/17 06:47 UTC (5 hours ago):

TAF KPBI 170539Z 1706/1806 VRB03KT P6SM FEW250 FM171500 28006KT P6SM VCSH FEW025 SCT050 FM172000 07008KT P6SM VCTS SCT025CB BKN100 FM180100 VRB04KT P6SM FEW025 SCT050 SCT150